sensor_id;sensor_type;location;lat;lon;timestamp;P1;durP1;ratioP1;P2;durP2;ratioP2
40471;SDS011;26174;42.908;23.800;2024-02-15T00:01:41;34.78;;;17.63;;
40471;SDS011;26174;42.908;23.800;2024-02-15T00:04:07;38.25;;;19.33;;
40471;SDS011;26174;42.908;23.800;2024-02-15T00:06:33;44.63;;;19.85;;
40471;SDS011;26174;42.908;23.800;2024-02-15T00:08:58;38.78;;;18.88;;
40471;SDS011;26174;42.908;23.800;2024-02-15T00:11:24;39.17;;;19.05;;
40471;SDS011;26174;42.908;23.800;2024-02-15T00:13:49;37.33;;;19.23;;
40471;SDS011;26174;42.908;23.800;2024-02-15T00:16:15;38.05;;;18.40;;
40471;SDS011;26174;42.908;23.800;2024-02-15T00:18:41;36.85;;;18.90;;
40471;SDS011;26174;42.908;23.800;2024-02-15T00:21:06;41.45;;;18.85;;
40471;SDS011;26174;42.908;23.800;2024-02-15T00:23:32;40.03;;;18.02;;
40471;SDS011;26174;42.908;23.800;2024-02-15T00:25:58;36.63;;;17.85;;
40471;SDS011;26174;42.908;23.800;2024-02-15T00:28:24;34.17;;;17.83;;
40471;SDS011;26174;42.908;23.800;2024-02-15T00:30:51;42.55;;;19.13;;
40471;SDS011;26174;42.908;23.800;2024-02-15T00:33:17;46.88;;;21.88;;
40471;SDS011;26174;42.908;23.800;2024-02-15T00:35:43;44.95;;;20.98;;
40471;SDS011;26174;42.908;23.800;2024-02-15T00:38:08;46.78;;;21.48;;
40471;SDS011;26174;42.908;23.800;2024-02-15T00:40:34;44.65;;;20.77;;
40471;SDS011;26174;42.908;23.800;2024-02-15T00:43:00;39.05;;;18.90;;
40471;SDS011;26174;42.908;23.800;2024-02-15T00:45:25;40.50;;;19.42;;
40471;SDS011;26174;42.908;23.800;2024-02-15T00:47:51;33.97;;;16.98;;
40471;SDS011;26174;42.908;23.800;2024-02-15T00:50:16;28.75;;;15.30;;
40471;SDS011;26174;42.908;23.800;2024-02-15T00:52:42;33.05;;;15.60;;
40471;SDS011;26174;42.908;23.800;2024-02-15T00:55:08;31.98;;;15.50;;
40471;SDS011;26174;42.908;23.800;2024-02-15T00:57:34;35.05;;;16.88;;
40471;SDS011;26174;42.908;23.800;2024-02-15T00:59:59;35.60;;;17.45;;
40471;SDS011;26174;42.908;23.800;2024-02-15T01:02:27;40.60;;;20.42;;
40471;SDS011;26174;42.908;23.800;2024-02-15T01:04:52;37.22;;;19.67;;
40471;SDS011;26174;42.908;23.800;2024-02-15T01:07:20;38.10;;;18.48;;
40471;SDS011;26174;42.908;23.800;2024-02-15T01:09:46;32.75;;;17.23;;
40471;SDS011;26174;42.908;23.800;2024-02-15T01:12:11;34.83;;;17.40;;
40471;SDS011;26174;42.908;23.800;2024-02-15T01:14:37;33.47;;;16.98;;
40471;SDS011;26174;42.908;23.800;2024-02-15T01:17:02;32.45;;;15.73;;
40471;SDS011;26174;42.908;23.800;2024-02-15T01:19:28;31.50;;;16.27;;
40471;SDS011;26174;42.908;23.800;2024-02-15T01:21:54;28.90;;;15.45;;
40471;SDS011;26174;42.908;23.800;2024-02-15T01:24:20;38.65;;;15.88;;
40471;SDS011;26174;42.908;23.800;2024-02-15T01:26:45;32.05;;;16.40;;
40471;SDS011;26174;42.908;23.800;2024-02-15T01:29:13;31.05;;;15.88;;
40471;SDS011;26174;42.908;23.800;2024-02-15T01:31:38;33.42;;;15.85;;
40471;SDS011;26174;42.908;23.800;2024-02-15T01:34:04;31.95;;;16.33;;
40471;SDS011;26174;42.908;23.800;2024-02-15T01:36:30;30.70;;;16.60;;
40471;SDS011;26174;42.908;23.800;2024-02-15T01:38:55;31.60;;;16.63;;
40471;SDS011;26174;42.908;23.800;2024-02-15T01:41:21;33.72;;;15.98;;
40471;SDS011;26174;42.908;23.800;2024-02-15T01:43:47;29.40;;;15.73;;
40471;SDS011;26174;42.908;23.800;2024-02-15T01:46:15;33.33;;;15.88;;
40471;SDS011;26174;42.908;23.800;2024-02-15T01:48:41;31.42;;;15.57;;
40471;SDS011;26174;42.908;23.800;2024-02-15T01:51:07;35.30;;;17.27;;
40471;SDS011;26174;42.908;23.800;2024-02-15T01:53:35;34.60;;;17.10;;
40471;SDS011;26174;42.908;23.800;2024-02-15T01:56:01;30.85;;;16.52;;
40471;SDS011;26174;42.908;23.800;2024-02-15T01:58:27;30.63;;;15.07;;
40471;SDS011;26174;42.908;23.800;2024-02-15T02:00:53;30.08;;;16.35;;
40471;SDS011;26174;42.908;23.800;2024-02-15T02:03:20;32.30;;;15.20;;
40471;SDS011;26174;42.908;23.800;2024-02-15T02:05:46;28.65;;;16.25;;
40471;SDS011;26174;42.908;23.800;2024-02-15T02:08:12;30.67;;;15.73;;
40471;SDS011;26174;42.908;23.800;2024-02-15T02:10:41;30.02;;;15.57;;
40471;SDS011;26174;42.908;23.800;2024-02-15T02:13:08;32.35;;;16.55;;
40471;SDS011;26174;42.908;23.800;2024-02-15T02:15:35;31.98;;;16.48;;
40471;SDS011;26174;42.908;23.800;2024-02-15T02:18:02;28.88;;;15.48;;
40471;SDS011;26174;42.908;23.800;2024-02-15T02:20:31;29.45;;;15.60;;
40471;SDS011;26174;42.908;23.800;2024-02-15T02:23:20;31.33;;;15.23;;
40471;SDS011;26174;42.908;23.800;2024-02-15T02:25:47;31.55;;;15.48;;
40471;SDS011;26174;42.908;23.800;2024-02-15T02:28:14;32.28;;;14.93;;
40471;SDS011;26174;42.908;23.800;2024-02-15T02:30:41;31.30;;;15.52;;
40471;SDS011;26174;42.908;23.800;2024-02-15T02:33:13;33.35;;;16.15;;
40471;SDS011;26174;42.908;23.800;2024-02-15T02:35:47;35.47;;;16.45;;
40471;SDS011;26174;42.908;23.800;2024-02-15T02:38:14;36.22;;;17.48;;
40471;SDS011;26174;42.908;23.800;2024-02-15T02:40:40;35.63;;;16.67;;
40471;SDS011;26174;42.908;23.800;2024-02-15T02:43:06;34.83;;;16.85;;
40471;SDS011;26174;42.908;23.800;2024-02-15T02:45:32;39.47;;;17.33;;
40471;SDS011;26174;42.908;23.800;2024-02-15T02:47:58;41.50;;;18.38;;
40471;SDS011;26174;42.908;23.800;2024-02-15T02:50:24;37.65;;;19.63;;
40471;SDS011;26174;42.908;23.800;2024-02-15T02:52:49;39.85;;;19.15;;
40471;SDS011;26174;42.908;23.800;2024-02-15T02:55:18;33.90;;;17.83;;
40471;SDS011;26174;42.908;23.800;2024-02-15T02:57:44;37.42;;;18.83;;
40471;SDS011;26174;42.908;23.800;2024-02-15T03:00:10;32.92;;;17.48;;
40471;SDS011;26174;42.908;23.800;2024-02-15T03:02:42;37.75;;;17.42;;
40471;SDS011;26174;42.908;23.800;2024-02-15T03:05:11;39.88;;;18.02;;
40471;SDS011;26174;42.908;23.800;2024-02-15T03:07:37;42.22;;;19.30;;
40471;SDS011;26174;42.908;23.800;2024-02-15T03:10:05;33.67;;;18.05;;
40471;SDS011;26174;42.908;23.800;2024-02-15T03:12:35;34.25;;;16.98;;
40471;SDS011;26174;42.908;23.800;2024-02-15T03:15:02;31.02;;;15.82;;
40471;SDS011;26174;42.908;23.800;2024-02-15T03:17:28;26.15;;;14.55;;
40471;SDS011;26174;42.908;23.800;2024-02-15T03:19:59;30.95;;;14.43;;
40471;SDS011;26174;42.908;23.800;2024-02-15T03:22:25;30.67;;;13.52;;
40471;SDS011;26174;42.908;23.800;2024-02-15T03:24:54;23.40;;;12.48;;
40471;SDS011;26174;42.908;23.800;2024-02-15T03:27:20;20.60;;;10.93;;
40471;SDS011;26174;42.908;23.800;2024-02-15T03:29:48;18.42;;;10.80;;
40471;SDS011;26174;42.908;23.800;2024-02-15T03:32:14;18.05;;;10.07;;
40471;SDS011;26174;42.908;23.800;2024-02-15T03:34:39;23.20;;;12.27;;
40471;SDS011;26174;42.908;23.800;2024-02-15T03:37:07;24.05;;;11.52;;
40471;SDS011;26174;42.908;23.800;2024-02-15T03:39:34;22.23;;;11.90;;
40471;SDS011;26174;42.908;23.800;2024-02-15T03:42:00;19.35;;;9.70;;
40471;SDS011;26174;42.908;23.800;2024-02-15T03:44:26;17.08;;;9.93;;
40471;SDS011;26174;42.908;23.800;2024-02-15T03:46:51;22.40;;;10.30;;
40471;SDS011;26174;42.908;23.800;2024-02-15T03:49:18;23.27;;;10.68;;
40471;SDS011;26174;42.908;23.800;2024-02-15T03:51:44;19.55;;;10.38;;
40471;SDS011;26174;42.908;23.800;2024-02-15T03:54:10;23.23;;;9.80;;
40471;SDS011;26174;42.908;23.800;2024-02-15T03:56:36;19.17;;;9.15;;
40471;SDS011;26174;42.908;23.800;2024-02-15T03:59:02;17.13;;;8.93;;
40471;SDS011;26174;42.908;23.800;2024-02-15T04:01:30;13.65;;;7.53;;
40471;SDS011;26174;42.908;23.800;2024-02-15T04:03:59;17.75;;;8.57;;
40471;SDS011;26174;42.908;23.800;2024-02-15T04:06:26;21.08;;;9.13;;
40471;SDS011;26174;42.908;23.800;2024-02-15T04:08:56;25.25;;;9.50;;
40471;SDS011;26174;42.908;23.800;2024-02-15T04:11:21;26.35;;;10.60;;
40471;SDS011;26174;42.908;23.800;2024-02-15T04:13:47;43.75;;;12.63;;
40471;SDS011;26174;42.908;23.800;2024-02-15T04:16:12;48.30;;;15.60;;
40471;SDS011;26174;42.908;23.800;2024-02-15T04:18:38;40.03;;;13.55;;
40471;SDS011;26174;42.908;23.800;2024-02-15T04:21:04;34.17;;;13.90;;
40471;SDS011;26174;42.908;23.800;2024-02-15T04:23:32;32.63;;;13.05;;
40471;SDS011;26174;42.908;23.800;2024-02-15T04:25:57;32.75;;;14.02;;
40471;SDS011;26174;42.908;23.800;2024-02-15T04:28:25;23.02;;;9.73;;
40471;SDS011;26174;42.908;23.800;2024-02-15T04:30:52;28.00;;;12.15;;
40471;SDS011;26174;42.908;23.800;2024-02-15T04:33:18;24.17;;;11.60;;
40471;SDS011;26174;42.908;23.800;2024-02-15T04:35:43;23.80;;;9.95;;
40471;SDS011;26174;42.908;23.800;2024-02-15T04:38:10;13.63;;;7.60;;
40471;SDS011;26174;42.908;23.800;2024-02-15T04:40:35;13.35;;;6.85;;
40471;SDS011;26174;42.908;23.800;2024-02-15T04:43:03;15.57;;;7.97;;
40471;SDS011;26174;42.908;23.800;2024-02-15T04:45:29;19.40;;;7.18;;
40471;SDS011;26174;42.908;23.800;2024-02-15T04:47:56;13.07;;;7.30;;
40471;SDS011;26174;42.908;23.800;2024-02-15T04:50:22;16.10;;;8.00;;
40471;SDS011;26174;42.908;23.800;2024-02-15T04:52:47;19.40;;;8.40;;
40471;SDS011;26174;42.908;23.800;2024-02-15T04:55:14;12.57;;;6.78;;
40471;SDS011;26174;42.908;23.800;2024-02-15T04:57:42;12.82;;;6.40;;
40471;SDS011;26174;42.908;23.800;2024-02-15T05:00:08;11.95;;;6.07;;
40471;SDS011;26174;42.908;23.800;2024-02-15T05:02:36;14.13;;;6.20;;
40471;SDS011;26174;42.908;23.800;2024-02-15T05:05:06;9.95;;;5.93;;
40471;SDS011;26174;42.908;23.800;2024-02-15T05:07:33;17.30;;;6.00;;
40471;SDS011;26174;42.908;23.800;2024-02-15T05:10:03;9.93;;;5.07;;
40471;SDS011;26174;42.908;23.800;2024-02-15T05:12:31;13.40;;;5.03;;
40471;SDS011;26174;42.908;23.800;2024-02-15T05:14:57;9.98;;;5.00;;
40471;SDS011;26174;42.908;23.800;2024-02-15T05:17:22;13.85;;;6.75;;
40471;SDS011;26174;42.908;23.800;2024-02-15T05:19:48;7.97;;;4.28;;
40471;SDS011;26174;42.908;23.800;2024-02-15T05:22:14;22.95;;;5.70;;
40471;SDS011;26174;42.908;23.800;2024-02-15T05:24:40;15.90;;;5.85;;
40471;SDS011;26174;42.908;23.800;2024-02-15T05:27:05;21.75;;;5.53;;
40471;SDS011;26174;42.908;23.800;2024-02-15T05:29:31;20.73;;;7.68;;
40471;SDS011;26174;42.908;23.800;2024-02-15T05:32:01;11.45;;;6.53;;
40471;SDS011;26174;42.908;23.800;2024-02-15T05:34:27;13.38;;;4.93;;
40471;SDS011;26174;42.908;23.800;2024-02-15T05:36:54;22.65;;;6.28;;
40471;SDS011;26174;42.908;23.800;2024-02-15T05:39:21;18.58;;;8.25;;
40471;SDS011;26174;42.908;23.800;2024-02-15T05:41:48;69.60;;;36.30;;
40471;SDS011;26174;42.908;23.800;2024-02-15T05:44:13;16.33;;;7.60;;
40471;SDS011;26174;42.908;23.800;2024-02-15T05:46:44;18.23;;;9.85;;
40471;SDS011;26174;42.908;23.800;2024-02-15T05:49:10;18.67;;;6.57;;
40471;SDS011;26174;42.908;23.800;2024-02-15T05:51:40;21.10;;;11.07;;
40471;SDS011;26174;42.908;23.800;2024-02-15T05:54:06;35.03;;;16.48;;
40471;SDS011;26174;42.908;23.800;2024-02-15T05:56:32;16.30;;;8.50;;
40471;SDS011;26174;42.908;23.800;2024-02-15T05:58:58;24.30;;;7.57;;
40471;SDS011;26174;42.908;23.800;2024-02-15T06:01:23;25.90;;;7.45;;
40471;SDS011;26174;42.908;23.800;2024-02-15T06:03:49;25.60;;;7.68;;
40471;SDS011;26174;42.908;23.800;2024-02-15T06:06:21;21.40;;;6.72;;
40471;SDS011;26174;42.908;23.800;2024-02-15T06:08:47;15.65;;;6.22;;
40471;SDS011;26174;42.908;23.800;2024-02-15T06:11:18;11.60;;;5.68;;
40471;SDS011;26174;42.908;23.800;2024-02-15T06:13:45;12.45;;;6.45;;
40471;SDS011;26174;42.908;23.800;2024-02-15T06:16:11;24.40;;;8.85;;
40471;SDS011;26174;42.908;23.800;2024-02-15T06:18:36;84.70;;;51.05;;
40471;SDS011;26174;42.908;23.800;2024-02-15T06:21:02;25.60;;;9.65;;
40471;SDS011;26174;42.908;23.800;2024-02-15T06:23:28;16.88;;;6.53;;
40471;SDS011;26174;42.908;23.800;2024-02-15T06:25:55;15.88;;;7.57;;
40471;SDS011;26174;42.908;23.800;2024-02-15T06:28:23;22.67;;;8.95;;
40471;SDS011;26174;42.908;23.800;2024-02-15T06:31:07;18.30;;;7.90;;
40471;SDS011;26174;42.908;23.800;2024-02-15T06:33:51;13.48;;;7.10;;
40471;SDS011;26174;42.908;23.800;2024-02-15T06:36:56;12.88;;;5.70;;
40471;SDS011;26174;42.908;23.800;2024-02-15T06:39:40;23.77;;;9.20;;
40471;SDS011;26174;42.908;23.800;2024-02-15T06:42:10;34.47;;;12.73;;
40471;SDS011;26174;42.908;23.800;2024-02-15T06:44:42;18.60;;;8.80;;
40471;SDS011;26174;42.908;23.800;2024-02-15T06:47:08;18.77;;;8.52;;
40471;SDS011;26174;42.908;23.800;2024-02-15T06:49:36;22.05;;;9.38;;
40471;SDS011;26174;42.908;23.800;2024-02-15T06:52:05;21.40;;;8.75;;
40471;SDS011;26174;42.908;23.800;2024-02-15T06:54:32;13.30;;;6.75;;
40471;SDS011;26174;42.908;23.800;2024-02-15T06:57:00;19.60;;;7.97;;
40471;SDS011;26174;42.908;23.800;2024-02-15T06:59:27;16.10;;;6.68;;
40471;SDS011;26174;42.908;23.800;2024-02-15T07:01:53;13.45;;;5.22;;
40471;SDS011;26174;42.908;23.800;2024-02-15T07:04:20;9.85;;;5.13;;
40471;SDS011;26174;42.908;23.800;2024-02-15T07:06:46;9.60;;;4.78;;
40471;SDS011;26174;42.908;23.800;2024-02-15T07:09:13;13.80;;;4.93;;
40471;SDS011;26174;42.908;23.800;2024-02-15T07:11:44;9.70;;;3.58;;
40471;SDS011;26174;42.908;23.800;2024-02-15T07:14:11;13.55;;;5.38;;
40471;SDS011;26174;42.908;23.800;2024-02-15T07:16:38;11.77;;;4.90;;
40471;SDS011;26174;42.908;23.800;2024-02-15T07:19:03;11.57;;;5.43;;
40471;SDS011;26174;42.908;23.800;2024-02-15T07:21:29;13.45;;;4.82;;
40471;SDS011;26174;42.908;23.800;2024-02-15T07:23:56;15.20;;;7.60;;
40471;SDS011;26174;42.908;23.800;2024-02-15T07:26:25;32.55;;;16.50;;
40471;SDS011;26174;42.908;23.800;2024-02-15T07:28:55;9.63;;;5.32;;
40471;SDS011;26174;42.908;23.800;2024-02-15T07:31:22;14.13;;;7.35;;
40471;SDS011;26174;42.908;23.800;2024-02-15T07:33:50;11.30;;;6.05;;
40471;SDS011;26174;42.908;23.800;2024-02-15T07:36:19;16.50;;;7.82;;
40471;SDS011;26174;42.908;23.800;2024-02-15T07:38:52;14.57;;;6.22;;
40471;SDS011;26174;42.908;23.800;2024-02-15T07:41:19;15.27;;;5.82;;
40471;SDS011;26174;42.908;23.800;2024-02-15T07:43:47;17.50;;;7.45;;
40471;SDS011;26174;42.908;23.800;2024-02-15T07:46:14;10.02;;;4.78;;
40471;SDS011;26174;42.908;23.800;2024-02-15T07:48:41;14.88;;;6.97;;
40471;SDS011;26174;42.908;23.800;2024-02-15T07:51:17;30.98;;;10.77;;
40471;SDS011;26174;42.908;23.800;2024-02-15T07:53:44;12.63;;;5.47;;
40471;SDS011;26174;42.908;23.800;2024-02-15T07:56:10;12.45;;;5.78;;
40471;SDS011;26174;42.908;23.800;2024-02-15T07:58:42;14.55;;;5.60;;
40471;SDS011;26174;42.908;23.800;2024-02-15T08:01:12;12.07;;;4.45;;
40471;SDS011;26174;42.908;23.800;2024-02-15T08:03:38;9.52;;;4.93;;
40471;SDS011;26174;42.908;23.800;2024-02-15T08:06:09;9.90;;;4.85;;
40471;SDS011;26174;42.908;23.800;2024-02-15T08:08:38;8.57;;;4.43;;
40471;SDS011;26174;42.908;23.800;2024-02-15T08:11:06;8.45;;;4.40;;
40471;SDS011;26174;42.908;23.800;2024-02-15T08:13:42;8.45;;;3.65;;
40471;SDS011;26174;42.908;23.800;2024-02-15T08:16:18;6.75;;;4.07;;
40471;SDS011;26174;42.908;23.800;2024-02-15T08:18:47;10.93;;;4.80;;
40471;SDS011;26174;42.908;23.800;2024-02-15T08:21:13;7.93;;;4.40;;
40471;SDS011;26174;42.908;23.800;2024-02-15T08:23:39;9.20;;;4.40;;
40471;SDS011;26174;42.908;23.800;2024-02-15T08:26:05;10.30;;;4.53;;
40471;SDS011;26174;42.908;23.800;2024-02-15T08:28:31;10.15;;;5.00;;
40471;SDS011;26174;42.908;23.800;2024-02-15T08:30:57;11.02;;;4.57;;
40471;SDS011;26174;42.908;23.800;2024-02-15T08:33:23;6.00;;;4.28;;
40471;SDS011;26174;42.908;23.800;2024-02-15T08:35:49;11.30;;;4.97;;
40471;SDS011;26174;42.908;23.800;2024-02-15T08:38:15;11.55;;;5.72;;
40471;SDS011;26174;42.908;23.800;2024-02-15T08:40:42;9.88;;;4.88;;
40471;SDS011;26174;42.908;23.800;2024-02-15T08:43:09;10.15;;;5.25;;
40471;SDS011;26174;42.908;23.800;2024-02-15T08:45:34;10.13;;;4.80;;
40471;SDS011;26174;42.908;23.800;2024-02-15T08:48:00;10.20;;;5.07;;
40471;SDS011;26174;42.908;23.800;2024-02-15T08:50:29;12.65;;;4.85;;
40471;SDS011;26174;42.908;23.800;2024-02-15T08:52:55;8.70;;;5.00;;
40471;SDS011;26174;42.908;23.800;2024-02-15T08:55:21;7.30;;;4.30;;
40471;SDS011;26174;42.908;23.800;2024-02-15T08:57:51;10.23;;;5.97;;
40471;SDS011;26174;42.908;23.800;2024-02-15T09:00:18;6.85;;;4.18;;
40471;SDS011;26174;42.908;23.800;2024-02-15T09:02:43;8.20;;;4.57;;
40471;SDS011;26174;42.908;23.800;2024-02-15T09:05:09;16.80;;;5.22;;
40471;SDS011;26174;42.908;23.800;2024-02-15T09:07:39;7.90;;;4.25;;
40471;SDS011;26174;42.908;23.800;2024-02-15T09:10:06;7.68;;;4.63;;
40471;SDS011;26174;42.908;23.800;2024-02-15T09:12:34;7.40;;;4.35;;
40471;SDS011;26174;42.908;23.800;2024-02-15T09:15:02;10.25;;;5.05;;
40471;SDS011;26174;42.908;23.800;2024-02-15T09:17:29;9.48;;;4.50;;
40471;SDS011;26174;42.908;23.800;2024-02-15T09:19:57;5.40;;;3.88;;
40471;SDS011;26174;42.908;23.800;2024-02-15T09:22:23;5.85;;;4.40;;
40471;SDS011;26174;42.908;23.800;2024-02-15T09:24:49;10.45;;;4.90;;
40471;SDS011;26174;42.908;23.800;2024-02-15T09:27:15;6.15;;;4.38;;
40471;SDS011;26174;42.908;23.800;2024-02-15T09:29:40;9.45;;;4.68;;
40471;SDS011;26174;42.908;23.800;2024-02-15T09:32:07;15.70;;;5.22;;
40471;SDS011;26174;42.908;23.800;2024-02-15T09:34:33;6.55;;;4.13;;
40471;SDS011;26174;42.908;23.800;2024-02-15T09:36:58;5.97;;;4.32;;
40471;SDS011;26174;42.908;23.800;2024-02-15T09:39:24;11.30;;;5.55;;
40471;SDS011;26174;42.908;23.800;2024-02-15T09:41:49;8.80;;;4.90;;
40471;SDS011;26174;42.908;23.800;2024-02-15T09:44:20;6.30;;;4.50;;
40471;SDS011;26174;42.908;23.800;2024-02-15T09:46:47;8.50;;;4.70;;
40471;SDS011;26174;42.908;23.800;2024-02-15T09:49:17;10.35;;;5.55;;
40471;SDS011;26174;42.908;23.800;2024-02-15T09:51:42;13.70;;;5.93;;
40471;SDS011;26174;42.908;23.800;2024-02-15T09:54:08;11.32;;;5.88;;
40471;SDS011;26174;42.908;23.800;2024-02-15T09:56:35;10.13;;;5.93;;
40471;SDS011;26174;42.908;23.800;2024-02-15T09:59:02;11.00;;;4.93;;
40471;SDS011;26174;42.908;23.800;2024-02-15T10:01:29;10.05;;;5.28;;
40471;SDS011;26174;42.908;23.800;2024-02-15T10:03:56;11.68;;;4.65;;
40471;SDS011;26174;42.908;23.800;2024-02-15T10:06:24;6.90;;;4.45;;
40471;SDS011;26174;42.908;23.800;2024-02-15T10:08:50;12.73;;;4.57;;
40471;SDS011;26174;42.908;23.800;2024-02-15T10:11:15;14.75;;;5.10;;
40471;SDS011;26174;42.908;23.800;2024-02-15T10:13:41;6.82;;;4.38;;
40471;SDS011;26174;42.908;23.800;2024-02-15T10:16:16;7.13;;;4.43;;
40471;SDS011;26174;42.908;23.800;2024-02-15T10:18:43;8.00;;;4.63;;
40471;SDS011;26174;42.908;23.800;2024-02-15T10:21:09;12.80;;;6.05;;
40471;SDS011;26174;42.908;23.800;2024-02-15T10:23:36;8.23;;;4.95;;
40471;SDS011;26174;42.908;23.800;2024-02-15T10:26:11;10.23;;;4.57;;
40471;SDS011;26174;42.908;23.800;2024-02-15T10:28:44;5.43;;;4.05;;
40471;SDS011;26174;42.908;23.800;2024-02-15T10:31:10;5.85;;;4.38;;
40471;SDS011;26174;42.908;23.800;2024-02-15T10:33:38;10.02;;;4.25;;
40471;SDS011;26174;42.908;23.800;2024-02-15T10:36:08;7.53;;;4.50;;
40471;SDS011;26174;42.908;23.800;2024-02-15T10:38:34;8.13;;;4.43;;
40471;SDS011;26174;42.908;23.800;2024-02-15T10:41:03;7.63;;;4.55;;
40471;SDS011;26174;42.908;23.800;2024-02-15T10:43:30;14.30;;;6.07;;
40471;SDS011;26174;42.908;23.800;2024-02-15T10:45:56;11.27;;;5.35;;
40471;SDS011;26174;42.908;23.800;2024-02-15T10:48:22;8.60;;;4.70;;
40471;SDS011;26174;42.908;23.800;2024-02-15T10:50:47;9.45;;;5.10;;
40471;SDS011;26174;42.908;23.800;2024-02-15T10:53:29;16.02;;;6.55;;
40471;SDS011;26174;42.908;23.800;2024-02-15T10:56:02;14.00;;;6.07;;
40471;SDS011;26174;42.908;23.800;2024-02-15T10:58:38;21.55;;;8.50;;
40471;SDS011;26174;42.908;23.800;2024-02-15T11:01:08;16.08;;;7.05;;
40471;SDS011;26174;42.908;23.800;2024-02-15T11:03:36;14.05;;;6.28;;
40471;SDS011;26174;42.908;23.800;2024-02-15T11:06:08;11.10;;;6.15;;
40471;SDS011;26174;42.908;23.800;2024-02-15T11:08:35;8.82;;;5.30;;
40471;SDS011;26174;42.908;23.800;2024-02-15T11:11:01;12.57;;;5.13;;
40471;SDS011;26174;42.908;23.800;2024-02-15T11:13:30;7.22;;;5.15;;
40471;SDS011;26174;42.908;23.800;2024-02-15T11:15:55;7.70;;;5.13;;
40471;SDS011;26174;42.908;23.800;2024-02-15T11:18:42;8.48;;;5.55;;
40471;SDS011;26174;42.908;23.800;2024-02-15T11:21:13;40.58;;;24.02;;
40471;SDS011;26174;42.908;23.800;2024-02-15T11:23:40;8.05;;;4.35;;
40471;SDS011;26174;42.908;23.800;2024-02-15T11:26:13;7.15;;;5.03;;
40471;SDS011;26174;42.908;23.800;2024-02-15T11:29:07;7.03;;;5.00;;
40471;SDS011;26174;42.908;23.800;2024-02-15T11:39:59;15.07;;;7.50;;
40471;SDS011;26174;42.908;23.800;2024-02-15T11:42:25;11.40;;;5.70;;
40471;SDS011;26174;42.908;23.800;2024-02-15T11:45:03;10.30;;;5.10;;
40471;SDS011;26174;42.908;23.800;2024-02-15T11:47:32;12.98;;;4.85;;
40471;SDS011;26174;42.908;23.800;2024-02-15T11:49:59;7.82;;;4.10;;
40471;SDS011;26174;42.908;23.800;2024-02-15T11:52:25;5.93;;;4.43;;
40471;SDS011;26174;42.908;23.800;2024-02-15T11:54:51;5.97;;;4.68;;
40471;SDS011;26174;42.908;23.800;2024-02-15T11:57:17;13.73;;;4.82;;
40471;SDS011;26174;42.908;23.800;2024-02-15T11:59:52;7.28;;;4.50;;
40471;SDS011;26174;42.908;23.800;2024-02-15T12:02:36;10.20;;;4.78;;
40471;SDS011;26174;42.908;23.800;2024-02-15T12:05:20;9.25;;;5.20;;
40471;SDS011;26174;42.908;23.800;2024-02-15T12:08:05;6.80;;;4.55;;
40471;SDS011;26174;42.908;23.800;2024-02-15T12:10:58;7.20;;;4.97;;
40471;SDS011;26174;42.908;23.800;2024-02-15T12:17:08;5.77;;;4.23;;
40471;SDS011;26174;42.908;23.800;2024-02-15T12:19:53;9.60;;;5.00;;
40471;SDS011;26174;42.908;23.800;2024-02-15T12:22:28;10.20;;;5.35;;
40471;SDS011;26174;42.908;23.800;2024-02-15T12:24:57;9.43;;;4.63;;
40471;SDS011;26174;42.908;23.800;2024-02-15T12:27:23;9.93;;;5.00;;
40471;SDS011;26174;42.908;23.800;2024-02-15T12:29:58;13.80;;;4.28;;
40471;SDS011;26174;42.908;23.800;2024-02-15T12:32:25;8.10;;;4.22;;
40471;SDS011;26174;42.908;23.800;2024-02-15T12:34:52;4.95;;;3.30;;
40471;SDS011;26174;42.908;23.800;2024-02-15T12:37:35;8.75;;;4.15;;
40471;SDS011;26174;42.908;23.800;2024-02-15T12:40:11;8.45;;;4.03;;
40471;SDS011;26174;42.908;23.800;2024-02-15T12:42:42;10.20;;;4.82;;
40471;SDS011;26174;42.908;23.800;2024-02-15T12:45:18;8.80;;;4.32;;
40471;SDS011;26174;42.908;23.800;2024-02-15T12:47:52;9.73;;;3.78;;
40471;SDS011;26174;42.908;23.800;2024-02-15T12:52:48;11.23;;;5.28;;
40471;SDS011;26174;42.908;23.800;2024-02-15T12:55:18;7.38;;;3.83;;
40471;SDS011;26174;42.908;23.800;2024-02-15T12:57:49;7.97;;;4.70;;
40471;SDS011;26174;42.908;23.800;2024-02-15T13:00:26;6.87;;;3.57;;
40471;SDS011;26174;42.908;23.800;2024-02-15T13:02:58;6.78;;;4.00;;
40471;SDS011;26174;42.908;23.800;2024-02-15T13:05:25;7.25;;;4.00;;
40471;SDS011;26174;42.908;23.800;2024-02-15T13:07:53;4.82;;;3.25;;
40471;SDS011;26174;42.908;23.800;2024-02-15T13:10:30;6.32;;;3.47;;
40471;SDS011;26174;42.908;23.800;2024-02-15T13:12:57;6.88;;;4.28;;
40471;SDS011;26174;42.908;23.800;2024-02-15T13:15:24;7.28;;;4.43;;
40471;SDS011;26174;42.908;23.800;2024-02-15T13:17:57;11.48;;;5.32;;
40471;SDS011;26174;42.908;23.800;2024-02-15T13:20:23;8.25;;;5.10;;
40471;SDS011;26174;42.908;23.800;2024-02-15T13:22:57;10.13;;;5.15;;
40471;SDS011;26174;42.908;23.800;2024-02-15T13:25:40;10.38;;;4.28;;
40471;SDS011;26174;42.908;23.800;2024-02-15T13:28:08;6.20;;;3.60;;
40471;SDS011;26174;42.908;23.800;2024-02-15T13:30:35;8.55;;;4.03;;
40471;SDS011;26174;42.908;23.800;2024-02-15T13:33:01;7.20;;;4.00;;
40471;SDS011;26174;42.908;23.800;2024-02-15T13:35:27;7.30;;;5.03;;
40471;SDS011;26174;42.908;23.800;2024-02-15T13:37:54;11.00;;;6.65;;
40471;SDS011;26174;42.908;23.800;2024-02-15T13:40:27;10.82;;;5.93;;
40471;SDS011;26174;42.908;23.800;2024-02-15T13:42:55;11.10;;;5.68;;
40471;SDS011;26174;42.908;23.800;2024-02-15T13:45:23;10.38;;;5.32;;
40471;SDS011;26174;42.908;23.800;2024-02-15T13:47:55;9.07;;;5.20;;
40471;SDS011;26174;42.908;23.800;2024-02-15T13:50:22;15.20;;;5.45;;
40471;SDS011;26174;42.908;23.800;2024-02-15T13:52:48;15.25;;;6.70;;
40471;SDS011;26174;42.908;23.800;2024-02-15T13:55:17;11.23;;;5.90;;
40471;SDS011;26174;42.908;23.800;2024-02-15T14:00:13;12.88;;;4.15;;
40471;SDS011;26174;42.908;23.800;2024-02-15T14:02:49;9.10;;;4.47;;
40471;SDS011;26174;42.908;23.800;2024-02-15T14:05:16;14.55;;;7.75;;
40471;SDS011;26174;42.908;23.800;2024-02-15T14:07:51;12.32;;;5.53;;
40471;SDS011;26174;42.908;23.800;2024-02-15T14:10:24;11.82;;;6.55;;
40471;SDS011;26174;42.908;23.800;2024-02-15T14:12:52;21.95;;;8.02;;
40471;SDS011;26174;42.908;23.800;2024-02-15T14:15:21;8.80;;;4.10;;
40471;SDS011;26174;42.908;23.800;2024-02-15T14:17:46;8.98;;;5.20;;
40471;SDS011;26174;42.908;23.800;2024-02-15T14:20:12;8.00;;;4.88;;
40471;SDS011;26174;42.908;23.800;2024-02-15T14:22:43;11.43;;;6.18;;
40471;SDS011;26174;42.908;23.800;2024-02-15T14:25:11;13.38;;;4.00;;
40471;SDS011;26174;42.908;23.800;2024-02-15T14:27:39;27.33;;;10.82;;
40471;SDS011;26174;42.908;23.800;2024-02-15T14:30:05;15.73;;;6.20;;
40471;SDS011;26174;42.908;23.800;2024-02-15T14:32:49;5.22;;;3.42;;
40471;SDS011;26174;42.908;23.800;2024-02-15T14:35:37;6.70;;;3.25;;
40471;SDS011;26174;42.908;23.800;2024-02-15T14:38:06;8.02;;;3.75;;
40471;SDS011;26174;42.908;23.800;2024-02-15T14:40:36;6.78;;;3.75;;
40471;SDS011;26174;42.908;23.800;2024-02-15T14:43:03;9.10;;;5.10;;
40471;SDS011;26174;42.908;23.800;2024-02-15T14:45:30;8.38;;;3.08;;